MSR43 HEGN-HECA
Flight info
| Callsign | MSR43 |
|---|---|
| Flight time | 0h 45m |
| Altitude | 28000 |
| Route | SOLOX1B SOLOX V603 GIDID T91 EMOVA L677 CVO |
| Aircraft | A21N/M-SDE3FGHIRWY/LB1 |
Departure
| Time | 2026-05-04 06:44 |
|---|---|
| Airport | Hurghada International Airport (HEGN) |
Arrival
| Time | 2026-05-04 07:30 |
|---|---|
| Airport | Cairo International Airport (HECA) |
| Time | Latitude | Longitude | Altitude | Speed | Heading |
|---|---|---|---|---|---|
| 2026-05-04 06:13 | 27.19178 | 33.80315 | 47 ft | 0 kts | 76° |
| 2026-05-04 06:30 | 27.19176 | 33.80307 | 48 ft | 2 kts | 76° |
| 2026-05-04 06:30 | 27.19172 | 33.80291 | 48 ft | 2 kts | 76° |
| 2026-05-04 06:30 | 27.19169 | 33.80271 | 48 ft | 2 kts | 99° |
| 2026-05-04 06:31 | 27.19175 | 33.80253 | 49 ft | 2 kts | 126° |
| 2026-05-04 06:31 | 27.19188 | 33.80240 | 49 ft | 2 kts | 155° |
| 2026-05-04 06:31 | 27.19196 | 33.80237 | 49 ft | 1 kts | 169° |
| 2026-05-04 06:31 | 27.19200 | 33.80236 | 49 ft | 0 kts | 166° |
| 2026-05-04 06:33 | 27.19198 | 33.80237 | 49 ft | 0 kts | 166° |
| 2026-05-04 06:34 | 27.19177 | 33.80243 | 49 ft | 5 kts | 165° |
| 2026-05-04 06:34 | 27.19123 | 33.80259 | 48 ft | 10 kts | 165° |
| 2026-05-04 06:34 | 27.19045 | 33.80282 | 48 ft | 13 kts | 167° |
| 2026-05-04 06:34 | 27.18948 | 33.80310 | 48 ft | 15 kts | 165° |
| 2026-05-04 06:35 | 27.18836 | 33.80342 | 47 ft | 17 kts | 166° |
| 2026-05-04 06:36 | 27.18437 | 33.80098 | 52 ft | 16 kts | 165° |
| 2026-05-04 06:37 | 27.18313 | 33.80135 | 51 ft | 20 kts | 165° |
| 2026-05-04 06:37 | 27.18167 | 33.80178 | 50 ft | 23 kts | 165° |
| 2026-05-04 06:37 | 27.18001 | 33.80226 | 50 ft | 25 kts | 166° |
| 2026-05-04 06:37 | 27.17829 | 33.80278 | 50 ft | 24 kts | 165° |
| 2026-05-04 06:38 | 27.17668 | 33.80325 | 51 ft | 23 kts | 165° |
| 2026-05-04 06:38 | 27.17519 | 33.80369 | 49 ft | 19 kts | 165° |
| 2026-05-04 06:40 | 27.17247 | 33.79555 | 78 ft | 15 kts | 254° |
| 2026-05-04 06:40 | 27.17182 | 33.79502 | 82 ft | 11 kts | 173° |
| 2026-05-04 06:40 | 27.17107 | 33.79525 | 84 ft | 11 kts | 164° |
| 2026-05-04 06:40 | 27.17019 | 33.79552 | 85 ft | 13 kts | 165° |
| 2026-05-04 06:41 | 27.16920 | 33.79583 | 86 ft | 15 kts | 165° |
| 2026-05-04 06:41 | 27.16796 | 33.79620 | 90 ft | 20 kts | 165° |
| 2026-05-04 06:41 | 27.16665 | 33.79659 | 96 ft | 18 kts | 165° |
| 2026-05-04 06:41 | 27.16546 | 33.79696 | 99 ft | 17 kts | 165° |
| 2026-05-04 06:42 | 27.16431 | 33.79725 | 102 ft | 16 kts | 167° |
| 2026-05-04 06:42 | 27.16309 | 33.79760 | 105 ft | 17 kts | 165° |
| 2026-05-04 06:42 | 27.16195 | 33.79784 | 108 ft | 15 kts | 189° |
| 2026-05-04 06:44 | 27.18514 | 33.78911 | 426 ft | 172 kts | 344° |
| 2026-05-04 06:44 | 27.19667 | 33.78621 | 1257 ft | 169 kts | 345° |
| 2026-05-04 06:44 | 27.20776 | 33.78352 | 2116 ft | 164 kts | 344° |
| 2026-05-04 06:45 | 27.21912 | 33.78061 | 2575 ft | 178 kts | 344° |
| 2026-05-04 06:45 | 27.23188 | 33.77724 | 3000 ft | 195 kts | 344° |
| 2026-05-04 06:45 | 27.24558 | 33.77357 | 3370 ft | 215 kts | 344° |
| 2026-05-04 06:45 | 27.26085 | 33.76947 | 3789 ft | 236 kts | 343° |
| 2026-05-04 06:46 | 27.27733 | 33.76504 | 4321 ft | 252 kts | 343° |
| 2026-05-04 06:46 | 27.29454 | 33.76045 | 5067 ft | 259 kts | 342° |
| 2026-05-04 06:46 | 27.31224 | 33.75570 | 5828 ft | 265 kts | 341° |
| 2026-05-04 06:46 | 27.33082 | 33.75087 | 6575 ft | 272 kts | 343° |
| 2026-05-04 06:48 | 27.47413 | 33.73993 | 10986 ft | 328 kts | 350° |
| 2026-05-04 06:48 | 27.49748 | 33.73843 | 11290 ft | 346 kts | 350° |
| 2026-05-04 06:49 | 27.52223 | 33.73685 | 11593 ft | 363 kts | 351° |
| 2026-05-04 06:50 | 27.70773 | 33.71475 | 15778 ft | 394 kts | 345° |
| 2026-05-04 06:51 | 27.73512 | 33.71046 | 16366 ft | 397 kts | 345° |
| 2026-05-04 06:51 | 27.76246 | 33.70618 | 16967 ft | 400 kts | 345° |
| 2026-05-04 06:51 | 27.79003 | 33.70188 | 17543 ft | 403 kts | 345° |
| 2026-05-04 06:51 | 27.81811 | 33.69752 | 18124 ft | 406 kts | 345° |
| 2026-05-04 06:52 | 27.84610 | 33.69315 | 18675 ft | 409 kts | 345° |
| 2026-05-04 06:52 | 27.87428 | 33.68875 | 19210 ft | 412 kts | 345° |
| 2026-05-04 06:52 | 27.90289 | 33.68428 | 19701 ft | 416 kts | 345° |
| 2026-05-04 06:52 | 27.93173 | 33.67976 | 20210 ft | 419 kts | 344° |
| 2026-05-04 06:53 | 27.96078 | 33.67523 | 20713 ft | 422 kts | 345° |
| 2026-05-04 06:53 | 27.99019 | 33.67064 | 21189 ft | 426 kts | 345° |
| 2026-05-04 06:53 | 28.01968 | 33.66604 | 21675 ft | 428 kts | 344° |
| 2026-05-04 06:53 | 28.04925 | 33.66143 | 22139 ft | 431 kts | 344° |
| 2026-05-04 06:54 | 28.07886 | 33.65682 | 22587 ft | 434 kts | 344° |
| 2026-05-04 06:54 | 28.10929 | 33.65206 | 23045 ft | 437 kts | 344° |
| 2026-05-04 06:54 | 28.13956 | 33.64732 | 23493 ft | 439 kts | 344° |
| 2026-05-04 06:54 | 28.16990 | 33.64256 | 23890 ft | 442 kts | 345° |
| 2026-05-04 06:55 | 28.20089 | 33.63903 | 24310 ft | 449 kts | 348° |
| 2026-05-04 06:55 | 28.23217 | 33.63781 | 24705 ft | 455 kts | 352° |
| 2026-05-04 06:55 | 28.26403 | 33.63907 | 25086 ft | 462 kts | 356° |
| 2026-05-04 06:55 | 28.29650 | 33.64175 | 25426 ft | 466 kts | 357° |
| 2026-05-04 06:56 | 28.32901 | 33.64481 | 25811 ft | 468 kts | 357° |
| 2026-05-04 06:57 | 28.54885 | 33.63868 | 28070 ft | 434 kts | 319° |
| 2026-05-04 06:58 | 28.57103 | 33.61626 | 28072 ft | 427 kts | 304° |
| 2026-05-04 06:58 | 28.58990 | 33.58972 | 28079 ft | 432 kts | 302° |
| 2026-05-04 06:58 | 28.62770 | 33.53595 | 28078 ft | 440 kts | 302° |
| 2026-05-04 06:59 | 28.66620 | 33.48167 | 28077 ft | 441 kts | 303° |
| 2026-05-04 06:59 | 28.70491 | 33.42709 | 28082 ft | 440 kts | 303° |
| 2026-05-04 07:01 | 28.85779 | 33.21069 | 28077 ft | 437 kts | 302° |
| 2026-05-04 07:02 | 28.89568 | 33.15689 | 28084 ft | 435 kts | 302° |
| 2026-05-04 07:02 | 28.93328 | 33.10339 | 28081 ft | 435 kts | 302° |
| 2026-05-04 07:03 | 28.97112 | 33.04951 | 28087 ft | 433 kts | 302° |
| 2026-05-04 07:03 | 29.00888 | 32.99565 | 28087 ft | 433 kts | 302° |
| 2026-05-04 07:04 | 29.04631 | 32.94223 | 28085 ft | 433 kts | 302° |
| 2026-05-04 07:04 | 29.08384 | 32.88855 | 28089 ft | 432 kts | 302° |
| 2026-05-04 07:05 | 29.12162 | 32.83445 | 28087 ft | 431 kts | 302° |
| 2026-05-04 07:05 | 29.15910 | 32.78073 | 27955 ft | 431 kts | 302° |
| 2026-05-04 07:06 | 29.19547 | 32.72866 | 27429 ft | 406 kts | 302° |
| 2026-05-04 07:06 | 29.21283 | 32.70370 | 27180 ft | 403 kts | 302° |
| 2026-05-04 07:06 | 29.23025 | 32.67862 | 26922 ft | 401 kts | 302° |
| 2026-05-04 07:07 | 29.24744 | 32.65381 | 26572 ft | 401 kts | 302° |
| 2026-05-04 07:08 | 29.36504 | 32.48325 | 23253 ft | 379 kts | 302° |
| 2026-05-04 07:09 | 29.38124 | 32.45963 | 22786 ft | 376 kts | 301° |
| 2026-05-04 07:09 | 29.39722 | 32.43631 | 22301 ft | 373 kts | 301° |
| 2026-05-04 07:09 | 29.41331 | 32.41283 | 21798 ft | 369 kts | 301° |
| 2026-05-04 07:09 | 29.42894 | 32.39000 | 21299 ft | 366 kts | 302° |
| 2026-05-04 07:10 | 29.44456 | 32.36716 | 20817 ft | 363 kts | 301° |
| 2026-05-04 07:10 | 29.46005 | 32.34452 | 20300 ft | 361 kts | 301° |
| 2026-05-04 07:12 | 29.56562 | 32.18976 | 16886 ft | 344 kts | 302° |
| 2026-05-04 07:12 | 29.58045 | 32.16795 | 16391 ft | 342 kts | 302° |
| 2026-05-04 07:12 | 29.59492 | 32.14666 | 15891 ft | 341 kts | 302° |
| 2026-05-04 07:12 | 29.60955 | 32.12513 | 15400 ft | 339 kts | 302° |
| 2026-05-04 07:13 | 29.62391 | 32.10401 | 14939 ft | 336 kts | 302° |
| 2026-05-04 07:13 | 29.63815 | 32.08306 | 14458 ft | 334 kts | 302° |
| 2026-05-04 07:13 | 29.65238 | 32.06208 | 13984 ft | 332 kts | 302° |
| 2026-05-04 07:14 | 29.70860 | 31.97916 | 12053 ft | 326 kts | 303° |
| 2026-05-04 07:14 | 29.72235 | 31.95887 | 11589 ft | 324 kts | 303° |
| 2026-05-04 07:15 | 29.73619 | 31.93843 | 11131 ft | 322 kts | 304° |
| 2026-05-04 07:15 | 29.74965 | 31.91855 | 10911 ft | 310 kts | 304° |
| 2026-05-04 07:15 | 29.76275 | 31.89923 | 10792 ft | 297 kts | 304° |
| 2026-05-04 07:15 | 29.77514 | 31.88094 | 10646 ft | 285 kts | 304° |
| 2026-05-04 07:16 | 29.78700 | 31.86332 | 10502 ft | 273 kts | 303° |
| 2026-05-04 07:16 | 29.79810 | 31.84616 | 10358 ft | 261 kts | 302° |
| 2026-05-04 07:16 | 29.80866 | 31.82967 | 10224 ft | 250 kts | 302° |
| 2026-05-04 07:16 | 29.81878 | 31.81385 | 10085 ft | 241 kts | 302° |
| 2026-05-04 07:17 | 29.82878 | 31.79819 | 9715 ft | 241 kts | 303° |
| 2026-05-04 07:17 | 29.83857 | 31.78284 | 9368 ft | 241 kts | 303° |
| 2026-05-04 07:17 | 29.84855 | 31.76723 | 9023 ft | 241 kts | 303° |
| 2026-05-04 07:17 | 29.85849 | 31.75172 | 8678 ft | 240 kts | 303° |
| 2026-05-04 07:18 | 29.86843 | 31.73618 | 8339 ft | 239 kts | 304° |
| 2026-05-04 07:18 | 29.87824 | 31.72087 | 8012 ft | 238 kts | 304° |
| 2026-05-04 07:18 | 29.88806 | 31.70553 | 7681 ft | 237 kts | 304° |
| 2026-05-04 07:18 | 29.89787 | 31.69021 | 7355 ft | 236 kts | 304° |
| 2026-05-04 07:19 | 29.90771 | 31.67527 | 7034 ft | 236 kts | 310° |
| 2026-05-04 07:19 | 29.92082 | 31.66370 | 6705 ft | 239 kts | 330° |
| 2026-05-04 07:19 | 29.93686 | 31.65768 | 6384 ft | 242 kts | 343° |
| 2026-05-04 07:19 | 29.95326 | 31.65384 | 6085 ft | 248 kts | 348° |
| 2026-05-04 07:20 | 29.97112 | 31.65585 | 5798 ft | 266 kts | 15° |
| 2026-05-04 07:20 | 29.98814 | 31.66454 | 5484 ft | 267 kts | 22° |
| 2026-05-04 07:20 | 30.00476 | 31.67445 | 5086 ft | 267 kts | 23° |
| 2026-05-04 07:20 | 30.02100 | 31.68432 | 4721 ft | 266 kts | 24° |
| 2026-05-04 07:22 | 30.13642 | 31.74394 | 2925 ft | 248 kts | 339° |
| 2026-05-04 07:22 | 30.15062 | 31.73371 | 2805 ft | 241 kts | 311° |
| 2026-05-04 07:23 | 30.15969 | 31.71790 | 2691 ft | 228 kts | 297° |
| 2026-05-04 07:23 | 30.16692 | 31.70192 | 2555 ft | 219 kts | 296° |
| 2026-05-04 07:23 | 30.17411 | 31.68650 | 2434 ft | 221 kts | 297° |
| 2026-05-04 07:23 | 30.18155 | 31.67110 | 2301 ft | 215 kts | 297° |
| 2026-05-04 07:24 | 30.18877 | 31.65648 | 2167 ft | 206 kts | 299° |
| 2026-05-04 07:24 | 30.19583 | 31.64240 | 2145 ft | 194 kts | 299° |
| 2026-05-04 07:24 | 30.20229 | 31.62953 | 2128 ft | 175 kts | 299° |
| 2026-05-04 07:24 | 30.20821 | 31.61795 | 2072 ft | 156 kts | 300° |
| 2026-05-04 07:25 | 30.21350 | 31.60754 | 2057 ft | 145 kts | 299° |
| 2026-05-04 07:26 | 30.18836 | 31.54063 | 2091 ft | 137 kts | 236° |
| 2026-05-04 07:27 | 30.18205 | 31.53218 | 2097 ft | 137 kts | 233° |
| 2026-05-04 07:27 | 30.17581 | 31.52387 | 2015 ft | 139 kts | 234° |
| 2026-05-04 07:27 | 30.16952 | 31.51552 | 1834 ft | 138 kts | 235° |
| 2026-05-04 07:27 | 30.16324 | 31.50713 | 1651 ft | 136 kts | 231° |
| 2026-05-04 07:28 | 30.15702 | 31.49884 | 1476 ft | 135 kts | 231° |
| 2026-05-04 07:28 | 30.15083 | 31.49057 | 1295 ft | 136 kts | 232° |
| 2026-05-04 07:28 | 30.14466 | 31.48238 | 1114 ft | 136 kts | 233° |
| 2026-05-04 07:28 | 30.13823 | 31.47419 | 916 ft | 137 kts | 231° |
| 2026-05-04 07:29 | 30.13218 | 31.46585 | 728 ft | 134 kts | 232° |
| 2026-05-04 07:29 | 30.12613 | 31.45775 | 581 ft | 134 kts | 233° |
| 2026-05-04 07:29 | 30.12004 | 31.44951 | 426 ft | 133 kts | 230° |
| 2026-05-04 07:29 | 30.11442 | 31.44198 | 386 ft | 105 kts | 229° |
| 2026-05-04 07:30 | 30.11073 | 31.43708 | 386 ft | 55 kts | 230° |
| 2026-05-04 07:30 | 30.10897 | 31.43422 | 386 ft | 29 kts | 248° |
| 2026-05-04 07:30 | 30.10846 | 31.43236 | 386 ft | 19 kts | 257° |
| 2026-05-04 07:30 | 30.10813 | 31.43097 | 386 ft | 15 kts | 252° |
| 2026-05-04 07:31 | 30.10762 | 31.42992 | 386 ft | 14 kts | 229° |
| 2026-05-04 07:31 | 30.10693 | 31.42898 | 386 ft | 15 kts | 231° |
| 2026-05-04 07:33 | 30.10031 | 31.42017 | 386 ft | 23 kts | 229° |
| 2026-05-04 07:33 | 30.09926 | 31.41877 | 386 ft | 22 kts | 230° |
| 2026-05-04 07:33 | 30.09911 | 31.41727 | 385 ft | 20 kts | 301° |
| 2026-05-04 07:33 | 30.09912 | 31.41576 | 385 ft | 19 kts | 259° |
| 2026-05-04 07:34 | 30.09886 | 31.41430 | 385 ft | 18 kts | 258° |
| 2026-05-04 07:34 | 30.09862 | 31.41284 | 385 ft | 18 kts | 260° |
| 2026-05-04 07:34 | 30.09838 | 31.41137 | 385 ft | 18 kts | 259° |
| 2026-05-04 07:34 | 30.09812 | 31.40987 | 385 ft | 19 kts | 260° |
| 2026-05-04 07:35 | 30.09788 | 31.40834 | 385 ft | 19 kts | 263° |
| 2026-05-04 07:35 | 30.09848 | 31.40700 | 385 ft | 20 kts | 320° |
| 2026-05-04 07:35 | 30.09955 | 31.40593 | 385 ft | 20 kts | 319° |
| 2026-05-04 07:35 | 30.10065 | 31.40484 | 385 ft | 21 kts | 320° |
| 2026-05-04 07:36 | 30.10177 | 31.40372 | 385 ft | 21 kts | 319° |
| 2026-05-04 07:36 | 30.10293 | 31.40258 | 385 ft | 22 kts | 319° |
| 2026-05-04 07:38 | 30.10502 | 31.39976 | 385 ft | 16 kts | 239° |
| 2026-05-04 07:38 | 30.10524 | 31.39863 | 385 ft | 15 kts | 332° |
| 2026-05-04 07:38 | 30.10632 | 31.39826 | 385 ft | 16 kts | 337° |
| 2026-05-04 07:38 | 30.10648 | 31.39711 | 385 ft | 16 kts | 255° |
| 2026-05-04 07:39 | 30.10615 | 31.39578 | 385 ft | 17 kts | 255° |
| 2026-05-04 07:39 | 30.10655 | 31.39470 | 385 ft | 16 kts | 342° |
| 2026-05-04 07:39 | 30.10754 | 31.39447 | 385 ft | 6 kts | 15° |
| 2026-05-04 07:39 | 30.10772 | 31.39475 | 385 ft | 5 kts | 95° |
| 2026-05-04 07:40 | 30.10780 | 31.39518 | 385 ft | 4 kts | 74° |
| 2026-05-04 07:40 | 30.10782 | 31.39529 | 385 ft | 0 kts | 75° |